createdAt,value
2023-09-07T00:01:35.151Z,101988.38
2023-09-07T00:03:43.466Z,101984.00
2023-09-07T00:05:49.562Z,101979.72
2023-09-07T00:07:57.265Z,101984.25
2023-09-07T00:10:03.548Z,101982.63
2023-09-07T00:12:09.560Z,101985.34
2023-09-07T00:14:17.372Z,101980.13
2023-09-07T00:16:27.832Z,101977.66
2023-09-07T00:18:33.782Z,101979.59
2023-09-07T00:20:41.880Z,101982.28
2023-09-07T00:22:47.215Z,101981.66
2023-09-07T00:24:52.558Z,101981.94
2023-09-07T00:26:59.223Z,101977.53
2023-09-07T00:29:04.294Z,101975.91
2023-09-07T00:31:09.529Z,101975.22
2023-09-07T00:33:17.120Z,101978.06
2023-09-07T00:35:22.537Z,101983.63
2023-09-07T00:37:30.694Z,101981.94
2023-09-07T00:39:35.798Z,101978.50
2023-09-07T00:41:40.902Z,101976.69
2023-09-07T00:43:48.916Z,101975.84
2023-09-07T00:45:59.034Z,101970.50
2023-09-07T00:48:04.562Z,101976.94
2023-09-07T00:50:15.155Z,101976.94
2023-09-07T00:52:25.602Z,101976.19
2023-09-07T00:54:28.312Z,101968.34
2023-09-07T00:56:35.710Z,101968.19
2023-09-07T00:58:41.883Z,101969.13
2023-09-07T01:00:47.595Z,101967.59
2023-09-07T01:02:50.297Z,101966.81
2023-09-07T01:04:56.258Z,101960.69
2023-09-07T01:07:12.236Z,101959.13
2023-09-07T01:09:20.737Z,101955.78
2023-09-07T01:11:26.103Z,101955.09
2023-09-07T01:13:31.627Z,101953.53
2023-09-07T01:15:36.816Z,101952.94
2023-09-07T01:17:45.264Z,101946.81
2023-09-07T01:19:50.909Z,101947.78
2023-09-07T01:22:02.606Z,101946.16
2023-09-07T01:24:10.465Z,101955.13
2023-09-07T01:26:16.367Z,101953.50
2023-09-07T01:28:23.222Z,101950.13
2023-09-07T01:30:35.136Z,101953.97
2023-09-07T01:32:43.904Z,101949.69
2023-09-07T01:34:49.485Z,101954.38
2023-09-07T01:36:57.072Z,101944.94
2023-09-07T01:39:05.305Z,101949.34
2023-09-07T01:41:10.525Z,101948.84
2023-09-07T01:43:15.921Z,101954.06
2023-09-07T01:45:21.261Z,101951.56
2023-09-07T01:47:26.361Z,101949.78
2023-09-07T01:49:32.787Z,101952.50
2023-09-07T01:51:38.417Z,101951.88
2023-09-07T01:53:43.840Z,101948.69
2023-09-07T01:55:52.635Z,101955.00
2023-09-07T01:58:02.415Z,101955.78
2023-09-07T02:00:09.564Z,101956.91
2023-09-07T02:02:15.001Z,101953.63
2023-09-07T02:04:20.202Z,101956.34
2023-09-07T02:06:27.917Z,101960.97
2023-09-07T02:08:33.062Z,101953.91
2023-09-07T02:10:38.676Z,101961.34
2023-09-07T02:12:49.475Z,101954.16
2023-09-07T02:14:57.052Z,101960.34
2023-09-07T02:17:02.181Z,101951.50
2023-09-07T02:19:08.401Z,101955.94
2023-09-07T02:21:14.518Z,101955.94
2023-09-07T02:23:22.572Z,101955.94
2023-09-07T02:25:29.044Z,101948.75
2023-09-07T02:27:31.814Z,101945.03
2023-09-07T02:29:39.391Z,101951.88
2023-09-07T02:31:42.885Z,101951.81
2023-09-07T02:33:47.917Z,101948.16
2023-09-07T02:35:56.262Z,101947.03
2023-09-07T02:38:01.931Z,101950.63
2023-09-07T02:40:09.044Z,101941.72
2023-09-07T02:42:13.998Z,101950.31
2023-09-07T02:44:20.068Z,101945.72
2023-09-07T02:46:28.816Z,101953.69
2023-09-07T02:48:34.231Z,101954.53
2023-09-07T02:50:37.218Z,101952.97
2023-09-07T02:52:43.843Z,101946.91
2023-09-07T02:54:49.279Z,101952.44
2023-09-07T02:56:57.400Z,101949.16
2023-09-07T02:59:05.423Z,101956.19
2023-09-07T03:01:12.184Z,101954.47
2023-09-07T03:03:20.018Z,101955.44
2023-09-07T03:05:27.495Z,101952.84
2023-09-07T03:07:40.674Z,101956.44
2023-09-07T03:09:48.956Z,101953.69
2023-09-07T03:11:52.622Z,101955.50
2023-09-07T03:13:59.833Z,101958.94
2023-09-07T03:16:04.048Z,101953.84
2023-09-07T03:18:12.177Z,101961.25
2023-09-07T03:20:18.624Z,101955.25
2023-09-07T03:22:23.892Z,101961.88
2023-09-07T03:24:31.964Z,101958.66
2023-09-07T03:26:37.196Z,101963.44
2023-09-07T03:28:42.534Z,101959.34
2023-09-07T03:30:45.245Z,101954.19
2023-09-07T03:32:50.731Z,101948.88
2023-09-07T03:34:56.220Z,101952.19
2023-09-07T03:37:07.662Z,101951.22
2023-09-07T03:39:13.214Z,101954.81
2023-09-07T03:41:15.714Z,101950.53
2023-09-07T03:43:21.749Z,101944.28
2023-09-07T03:45:27.001Z,101948.78
2023-09-07T03:47:32.354Z,101945.28
2023-09-07T03:49:37.707Z,101946.41
2023-09-07T03:51:43.336Z,101955.22
2023-09-07T03:53:52.269Z,101958.19
2023-09-07T03:56:00.210Z,101949.81
2023-09-07T03:58:05.282Z,101958.00
2023-09-07T04:00:10.084Z,101961.72
2023-09-07T04:02:15.445Z,101966.38
2023-09-07T04:04:22.047Z,101967.50
2023-09-07T04:06:28.178Z,101966.84
2023-09-07T04:08:33.396Z,101973.00
2023-09-07T04:10:45.121Z,101969.84
2023-09-07T04:12:50.353Z,101972.41
2023-09-07T04:14:56.354Z,101970.75
2023-09-07T04:17:02.793Z,101968.84
2023-09-07T04:19:10.548Z,101962.66
2023-09-07T04:21:16.579Z,101963.75
2023-09-07T04:23:23.111Z,101968.25
2023-09-07T04:25:30.501Z,101966.69
2023-09-07T04:27:40.699Z,101972.00
2023-09-07T04:29:52.101Z,101972.25
2023-09-07T04:31:57.144Z,101970.56
2023-09-07T04:34:05.188Z,101972.47
2023-09-07T04:36:16.656Z,101968.09
2023-09-07T04:38:21.977Z,101970.03
2023-09-07T04:40:31.261Z,101969.94
2023-09-07T04:42:39.927Z,101970.19
2023-09-07T04:44:46.793Z,101958.84
2023-09-07T04:46:55.679Z,101968.53
2023-09-07T04:49:04.331Z,101965.00
2023-09-07T04:51:10.490Z,101976.41
2023-09-07T04:53:18.432Z,101978.41
2023-09-07T04:55:26.873Z,101977.41
2023-09-07T04:57:31.841Z,101974.94
2023-09-07T04:59:39.892Z,101979.81
2023-09-07T05:01:45.181Z,101986.91
2023-09-07T05:03:53.159Z,101986.84
2023-09-07T05:06:01.947Z,101990.66
2023-09-07T05:08:09.856Z,101984.84
2023-09-07T05:10:20.930Z,101987.69
2023-09-07T05:12:26.371Z,101993.97
2023-09-07T05:14:33.825Z,101986.84
2023-09-07T05:18:12.028Z,101998.03
2023-09-07T05:20:45.327Z,101996.25
2023-09-07T05:23:24.655Z,101993.44
2023-09-07T05:26:33.229Z,101989.94
2023-09-07T05:28:57.329Z,101987.28
2023-09-07T05:33:59.478Z,101995.31
2023-09-07T05:36:08.052Z,101990.94
2023-09-07T05:38:13.922Z,101997.09
2023-09-07T05:40:17.794Z,101995.06
2023-09-07T05:42:22.879Z,101995.28
2023-09-07T05:44:44.903Z,101988.47
2023-09-07T05:46:59.206Z,101997.44
2023-09-07T05:49:07.141Z,101995.00
2023-09-07T05:51:13.960Z,102002.25
2023-09-07T05:53:17.022Z,101998.97
2023-09-07T05:55:25.626Z,101993.91
2023-09-07T05:57:30.789Z,101995.19
2023-09-07T05:59:36.904Z,101998.06
2023-09-07T06:01:46.457Z,102002.53
2023-09-07T06:03:57.733Z,101997.31
2023-09-07T06:06:08.810Z,102000.03
2023-09-07T06:08:18.160Z,102006.28
2023-09-07T06:10:25.715Z,102003.59
2023-09-07T06:12:31.034Z,102003.63
2023-09-07T06:14:36.788Z,102007.00
2023-09-07T06:16:42.255Z,102005.47
2023-09-07T06:18:47.820Z,102015.44
2023-09-07T06:21:55.708Z,102012.91
2023-09-07T06:24:03.413Z,102024.91
2023-09-07T06:26:08.448Z,102025.00
2023-09-07T06:28:14.646Z,102026.84
2023-09-07T06:30:21.326Z,102032.25
2023-09-07T06:32:26.673Z,102023.78
2023-09-07T06:34:32.109Z,102024.69
2023-09-07T06:36:47.562Z,102023.91
2023-09-07T06:38:55.697Z,102019.72
2023-09-07T06:41:03.956Z,102022.13
2023-09-07T06:43:25.210Z,102021.16
2023-09-07T06:45:30.731Z,102017.47
2023-09-07T06:47:36.477Z,102012.72
2023-09-07T06:49:47.998Z,102018.91
2023-09-07T06:51:56.197Z,102019.28
2023-09-07T06:54:06.623Z,102019.84
2023-09-07T06:56:15.018Z,102012.69
2023-09-07T06:58:27.122Z,102020.78
2023-09-07T07:00:33.127Z,102020.34
2023-09-07T07:02:45.904Z,102019.41
2023-09-07T07:04:53.008Z,102022.31
2023-09-07T07:07:02.392Z,102017.25
2023-09-07T07:09:10.535Z,102018.00
2023-09-07T07:11:19.098Z,102020.25
2023-09-07T07:13:26.928Z,102007.59
2023-09-07T07:15:36.136Z,102018.53
2023-09-07T07:17:42.811Z,102013.72
2023-09-07T07:19:50.881Z,102025.28
2023-09-07T07:21:56.145Z,102025.41
2023-09-07T07:24:07.014Z,102024.66
2023-09-07T07:26:14.636Z,102012.22
2023-09-07T07:28:22.428Z,102021.66
2023-09-07T07:30:37.676Z,102011.66
2023-09-07T07:32:45.111Z,102008.88
2023-09-07T07:34:50.960Z,102016.16
2023-09-07T07:36:56.380Z,102008.94
2023-09-07T07:39:06.058Z,102004.06
2023-09-07T07:41:11.345Z,102002.13
2023-09-07T07:43:16.690Z,102002.72
2023-09-07T07:45:27.478Z,102000.47
2023-09-07T07:47:32.538Z,101997.09
2023-09-07T07:49:35.812Z,101999.78
2023-09-07T07:51:44.418Z,101995.50
2023-09-07T07:53:57.619Z,101991.56
2023-09-07T07:56:02.690Z,101993.50
2023-09-07T07:58:10.240Z,101988.16
2023-09-07T08:00:18.421Z,101987.41
2023-09-07T08:02:28.008Z,101993.63
2023-09-07T08:04:34.159Z,101986.06
2023-09-07T08:06:45.156Z,101984.22
2023-09-07T08:09:07.926Z,101991.53
2023-09-07T08:11:13.419Z,101991.06
2023-09-07T08:13:22.230Z,101987.50
2023-09-07T08:15:27.662Z,101987.28
2023-09-07T08:17:35.775Z,101987.41
2023-09-07T08:19:45.250Z,101985.72
2023-09-07T08:21:52.711Z,101976.22
2023-09-07T08:24:04.562Z,101979.72
2023-09-07T08:26:17.567Z,101974.53
2023-09-07T08:28:20.638Z,101980.47
2023-09-07T08:30:27.608Z,101975.38
2023-09-07T08:32:40.404Z,101974.19
2023-09-07T08:34:45.900Z,101976.75
2023-09-07T08:36:57.360Z,101969.97
2023-09-07T08:39:07.280Z,101969.84
2023-09-07T08:41:14.377Z,101979.16
2023-09-07T08:43:25.575Z,101979.69
2023-09-07T08:45:34.901Z,101976.13
2023-09-07T08:47:46.176Z,101977.91
2023-09-07T08:49:57.136Z,101971.91
2023-09-07T08:52:12.823Z,101959.38
2023-09-07T08:54:19.149Z,101963.06
2023-09-07T08:56:34.004Z,101971.28
2023-09-07T08:58:39.071Z,101967.31
2023-09-07T09:00:47.540Z,101960.97
2023-09-07T09:03:03.600Z,101960.88
2023-09-07T09:05:10.449Z,101961.13
2023-09-07T09:07:16.731Z,101967.44
2023-09-07T09:09:26.678Z,101958.06
2023-09-07T09:11:35.310Z,101961.47
2023-09-07T09:13:40.520Z,101957.94
2023-09-07T09:15:48.331Z,101949.56
2023-09-07T09:18:01.270Z,101956.06
2023-09-07T09:20:13.150Z,101958.66
2023-09-07T09:22:22.504Z,101953.06
2023-09-07T09:24:28.045Z,101954.81
2023-09-07T09:26:32.947Z,101956.84
2023-09-07T09:28:38.846Z,101950.56
2023-09-07T09:30:46.486Z,101948.97
2023-09-07T09:32:57.592Z,101955.53
2023-09-07T09:35:04.408Z,101955.81
2023-09-07T09:37:20.333Z,101962.72
2023-09-07T09:39:29.268Z,101963.66
2023-09-07T09:41:36.351Z,101961.22
2023-09-07T09:43:41.870Z,101964.03
2023-09-07T09:45:47.606Z,101964.47
2023-09-07T09:48:01.172Z,101961.53
2023-09-07T09:50:07.851Z,101960.75
2023-09-07T09:52:14.396Z,101957.31
2023-09-07T09:54:21.112Z,101962.88
2023-09-07T09:56:27.724Z,101957.81
2023-09-07T09:58:35.149Z,101960.00
2023-09-07T10:00:41.516Z,101963.78
2023-09-07T10:02:47.830Z,101954.34
2023-09-07T10:04:56.108Z,101953.59
2023-09-07T10:07:02.442Z,101958.06
2023-09-07T10:09:13.085Z,101943.41
2023-09-07T10:11:30.679Z,101942.16
2023-09-07T10:13:37.639Z,101937.81
2023-09-07T10:15:44.166Z,101930.84
2023-09-07T10:17:51.586Z,101934.00
2023-09-07T10:20:09.815Z,101940.66
2023-09-07T10:22:26.071Z,101940.53
2023-09-07T10:24:32.431Z,101942.53
2023-09-07T10:26:37.642Z,101935.56
2023-09-07T10:28:44.876Z,101938.44
2023-09-07T10:30:49.763Z,101937.09
2023-09-07T10:32:56.949Z,101932.72
2023-09-07T10:35:04.260Z,101944.00
2023-09-07T10:37:14.641Z,101936.09
2023-09-07T10:39:21.602Z,101929.41
2023-09-07T10:41:30.692Z,101927.38
2023-09-07T10:43:45.483Z,101928.22
2023-09-07T10:45:51.978Z,101931.38
2023-09-07T10:47:57.120Z,101940.03
2023-09-07T10:50:04.649Z,101927.47
2023-09-07T10:52:13.461Z,101925.19
2023-09-07T10:54:19.531Z,101927.03
2023-09-07T10:56:31.752Z,101930.19
2023-09-07T10:58:40.072Z,101927.25
2023-09-07T11:00:45.610Z,101920.47
2023-09-07T11:02:50.671Z,101919.53
2023-09-07T11:04:56.394Z,101919.84
2023-09-07T11:07:02.284Z,101914.63
2023-09-07T11:09:12.433Z,101918.38
2023-09-07T11:11:18.254Z,101915.16
2023-09-07T11:13:26.722Z,101912.97
2023-09-07T11:15:31.302Z,101905.75
2023-09-07T11:17:36.745Z,101915.97
2023-09-07T11:19:41.761Z,101898.03
2023-09-07T11:21:47.140Z,101898.00
2023-09-07T11:23:52.264Z,101897.16
2023-09-07T11:26:00.035Z,101894.34
2023-09-07T11:28:20.799Z,101886.06
2023-09-07T11:30:26.027Z,101891.56
2023-09-07T11:32:38.022Z,101886.97
2023-09-07T11:34:52.701Z,101876.16
2023-09-07T11:37:00.827Z,101876.91
2023-09-07T11:39:12.033Z,101886.53
2023-09-07T11:41:20.873Z,101885.16
2023-09-07T11:43:26.303Z,101878.94
2023-09-07T11:45:33.929Z,101878.19
2023-09-07T11:47:39.286Z,101868.53
2023-09-07T11:49:44.335Z,101869.69
2023-09-07T11:51:51.228Z,101872.25
2023-09-07T11:53:56.344Z,101868.69
2023-09-07T11:56:02.501Z,101861.78
2023-09-07T11:58:11.826Z,101869.34
2023-09-07T12:00:19.836Z,101866.16
2023-09-07T12:02:28.619Z,101867.19
2023-09-07T12:04:34.850Z,101868.19
2023-09-07T12:06:44.757Z,101857.03
2023-09-07T12:09:03.141Z,101860.38
2023-09-07T12:11:09.645Z,101857.31
2023-09-07T12:13:17.541Z,101852.25
2023-09-07T12:15:22.804Z,101851.06
2023-09-07T12:17:26.554Z,101843.06
2023-09-07T12:19:32.029Z,101842.97
2023-09-07T12:21:37.105Z,101845.69
2023-09-07T12:23:43.333Z,101841.41
2023-09-07T12:25:52.540Z,101845.47
2023-09-07T12:28:00.961Z,101847.69
2023-09-07T12:30:13.935Z,101839.16
2023-09-07T12:32:22.902Z,101842.31
2023-09-07T12:34:32.317Z,101828.72
2023-09-07T12:36:39.300Z,101833.63
2023-09-07T12:38:44.710Z,101836.50
2023-09-07T12:40:50.138Z,101832.16
2023-09-07T12:42:56.141Z,101836.34
2023-09-07T12:44:58.852Z,101822.94
2023-09-07T12:47:06.643Z,101820.28
2023-09-07T12:49:11.920Z,101827.56
2023-09-07T12:51:17.514Z,101828.72
2023-09-07T12:53:26.107Z,101833.72
2023-09-07T12:55:31.499Z,101827.91
2023-09-07T12:57:37.456Z,101823.69
2023-09-07T12:59:45.348Z,101817.44
2023-09-07T13:01:56.737Z,101819.97
2023-09-07T13:04:04.502Z,101824.31
2023-09-07T13:06:09.668Z,101812.06
2023-09-07T13:08:15.228Z,101815.81
2023-09-07T13:10:20.173Z,101804.28
2023-09-07T13:12:27.313Z,101810.94
2023-09-07T13:14:34.669Z,101799.53
2023-09-07T13:16:45.266Z,101798.78
2023-09-07T13:18:52.961Z,101799.53
2023-09-07T13:21:03.372Z,101800.66
2023-09-07T13:23:08.684Z,101804.94
2023-09-07T13:25:14.181Z,101794.00
2023-09-07T13:27:19.715Z,101794.59
2023-09-07T13:29:26.222Z,101785.25
2023-09-07T13:31:34.714Z,101784.56
2023-09-07T13:33:45.180Z,101777.63
2023-09-07T13:35:50.121Z,101777.19
2023-09-07T13:38:06.314Z,101779.25
2023-09-07T13:40:13.076Z,101765.94
2023-09-07T13:42:18.947Z,101762.97
2023-09-07T13:44:27.127Z,101776.06
2023-09-07T13:46:34.872Z,101769.69
2023-09-07T13:48:42.962Z,101756.56
2023-09-07T13:50:50.323Z,101757.50
2023-09-07T13:53:00.275Z,101756.16
2023-09-07T13:55:06.635Z,101759.56
2023-09-07T13:57:18.431Z,101753.53
2023-09-07T13:59:23.593Z,101755.63
2023-09-07T14:01:33.230Z,101757.69
2023-09-07T14:03:39.326Z,101758.16
2023-09-07T14:05:44.289Z,101756.72
2023-09-07T14:07:49.772Z,101758.28
2023-09-07T14:10:00.638Z,101759.94
2023-09-07T14:12:05.846Z,101750.00
2023-09-07T14:14:11.251Z,101752.91
2023-09-07T14:16:17.584Z,101749.75
2023-09-07T14:18:22.626Z,101754.53
2023-09-07T14:20:27.908Z,101745.75
2023-09-07T14:22:30.585Z,101752.78
2023-09-07T14:24:35.642Z,101747.56
2023-09-07T14:26:43.442Z,101752.06
2023-09-07T14:28:48.554Z,101755.38
2023-09-07T14:30:56.269Z,101746.28
2023-09-07T14:33:01.622Z,101749.88
2023-09-07T14:35:07.498Z,101757.59
2023-09-07T14:37:12.690Z,101752.81
2023-09-07T14:39:26.764Z,101746.06
2023-09-07T14:41:32.476Z,101748.97
2023-09-07T14:43:42.425Z,101745.47
2023-09-07T14:45:48.404Z,101754.38
2023-09-07T14:47:53.805Z,101755.09
2023-09-07T14:49:59.721Z,101747.22
2023-09-07T14:52:04.791Z,101743.56
2023-09-07T14:54:10.064Z,101749.50
2023-09-07T14:56:16.157Z,101751.50
2023-09-07T14:58:21.489Z,101738.53
2023-09-07T15:00:35.520Z,101738.69
2023-09-07T15:02:40.883Z,101742.41
2023-09-07T15:04:47.228Z,101743.75
2023-09-07T15:06:52.433Z,101734.50
2023-09-07T15:09:00.227Z,101736.78
2023-09-07T15:11:05.288Z,101740.88
2023-09-07T15:13:11.604Z,101738.81
2023-09-07T15:15:19.929Z,101741.84
2023-09-07T15:17:32.386Z,101735.69
2023-09-07T15:19:37.880Z,101736.50
2023-09-07T15:21:43.021Z,101733.19
2023-09-07T15:23:49.720Z,101730.41
2023-09-07T15:25:59.447Z,101736.13
2023-09-07T15:28:09.971Z,101736.03
2023-09-07T15:30:16.480Z,101738.03
2023-09-07T15:32:23.410Z,101737.41
2023-09-07T15:34:34.935Z,101733.63
2023-09-07T15:36:45.167Z,101727.59
2023-09-07T15:38:52.731Z,101725.91
2023-09-07T15:40:58.732Z,101726.16
2023-09-07T15:43:07.474Z,101729.47
2023-09-07T15:45:13.731Z,101726.91
2023-09-07T15:47:19.628Z,101723.16
2023-09-07T15:49:28.412Z,101731.03
2023-09-07T15:51:42.613Z,101726.69
2023-09-07T15:53:50.005Z,101729.13
2023-09-07T15:56:10.877Z,101729.81
2023-09-07T15:58:30.095Z,101733.22
2023-09-07T16:00:36.752Z,101729.31
2023-09-07T16:02:44.868Z,101729.53
2023-09-07T16:04:50.115Z,101726.97
2023-09-07T16:07:00.899Z,101722.91
2023-09-07T16:09:06.900Z,101723.91
2023-09-07T16:11:14.137Z,101725.06
2023-09-07T16:13:19.239Z,101726.09
2023-09-07T16:15:27.228Z,101729.47
2023-09-07T16:17:35.922Z,101725.06
2023-09-07T16:19:46.602Z,101728.72
2023-09-07T16:21:55.676Z,101727.66
2023-09-07T16:24:03.444Z,101729.38
2023-09-07T16:26:09.108Z,101724.91
2023-09-07T16:28:14.356Z,101725.94
2023-09-07T16:30:19.273Z,101725.88
2023-09-07T16:32:24.543Z,101727.53
2023-09-07T16:34:30.443Z,101722.47
2023-09-07T16:36:48.493Z,101720.22
2023-09-07T16:38:54.671Z,101719.47
2023-09-07T16:41:07.664Z,101725.84
2023-09-07T16:43:13.768Z,101724.69
2023-09-07T16:45:18.955Z,101724.56
2023-09-07T16:47:26.870Z,101716.97
2023-09-07T16:49:32.032Z,101721.50
2023-09-07T16:51:37.077Z,101720.19
2023-09-07T16:53:44.109Z,101725.59
2023-09-07T16:55:46.476Z,101722.13
2023-09-07T16:57:55.950Z,101718.22
2023-09-07T17:00:01.710Z,101717.47
2023-09-07T17:02:10.117Z,101724.00
2023-09-07T17:04:19.224Z,101722.03
2023-09-07T17:06:35.619Z,101718.41
2023-09-07T17:08:41.045Z,101718.03
2023-09-07T17:10:47.288Z,101721.25
2023-09-07T17:12:57.432Z,101729.22
2023-09-07T17:15:02.891Z,101726.84
2023-09-07T17:17:09.195Z,101723.44
2023-09-07T17:19:16.234Z,101724.13
2023-09-07T17:21:25.932Z,101726.28
2023-09-07T17:23:36.829Z,101729.06
2023-09-07T17:25:43.016Z,101729.31
2023-09-07T17:27:49.156Z,101725.91
2023-09-07T17:30:00.359Z,101720.00
2023-09-07T17:32:05.703Z,101728.31
2023-09-07T17:34:13.221Z,101729.16
2023-09-07T17:36:17.279Z,101726.38
2023-09-07T17:38:22.433Z,101730.59
2023-09-07T17:40:27.759Z,101731.91
2023-09-07T17:42:31.419Z,101731.19
2023-09-07T17:44:36.657Z,101732.25
2023-09-07T17:46:44.770Z,101728.72
2023-09-07T17:48:52.795Z,101731.28
2023-09-07T17:50:59.996Z,101730.84
2023-09-07T17:53:05.114Z,101724.06
2023-09-07T17:55:11.203Z,101735.19
2023-09-07T17:57:13.581Z,101736.94
2023-09-07T17:59:18.382Z,101732.38
2023-09-07T18:01:23.923Z,101734.72
2023-09-07T18:03:35.198Z,101743.91
2023-09-07T18:05:40.367Z,101735.00
2023-09-07T18:07:46.817Z,101736.84
2023-09-07T18:09:52.141Z,101743.81
2023-09-07T18:12:00.361Z,101738.28
2023-09-07T18:14:12.969Z,101746.19
2023-09-07T18:16:18.729Z,101746.94
2023-09-07T18:18:23.941Z,101744.75
2023-09-07T18:20:32.870Z,101751.41
2023-09-07T18:22:42.926Z,101746.59
2023-09-07T18:24:50.850Z,101744.72
2023-09-07T18:26:58.639Z,101743.97
2023-09-07T18:29:07.453Z,101753.19
2023-09-07T18:31:10.046Z,101748.03
2023-09-07T18:33:18.061Z,101758.31
2023-09-07T18:35:23.170Z,101761.78
2023-09-07T18:37:33.641Z,101757.91
2023-09-07T18:39:38.951Z,101758.97
2023-09-07T18:41:47.052Z,101758.78
2023-09-07T18:43:53.288Z,101753.22
2023-09-07T18:46:00.900Z,101762.94
2023-09-07T18:48:06.213Z,101769.97
2023-09-07T18:50:13.583Z,101760.56
2023-09-07T18:52:18.886Z,101762.94
2023-09-07T18:54:25.935Z,101762.06
2023-09-07T18:56:30.903Z,101762.06
2023-09-07T18:58:36.780Z,101759.50
2023-09-07T19:00:43.940Z,101762.56
2023-09-07T19:02:51.675Z,101758.56
2023-09-07T19:04:59.173Z,101754.44
2023-09-07T19:07:07.609Z,101752.25
2023-09-07T19:09:11.645Z,101758.16
2023-09-07T19:11:21.531Z,101758.41
2023-09-07T19:13:26.791Z,101753.41
2023-09-07T19:15:45.237Z,101759.69
2023-09-07T19:17:50.221Z,101759.47
2023-09-07T19:19:59.205Z,101755.06
2023-09-07T19:22:04.149Z,101763.63
2023-09-07T19:24:15.485Z,101770.47
2023-09-07T19:26:33.828Z,101766.69
2023-09-07T19:28:38.871Z,101766.97
2023-09-07T19:30:47.212Z,101769.00
2023-09-07T19:32:52.713Z,101760.72
2023-09-07T19:34:58.096Z,101762.19
2023-09-07T19:37:03.983Z,101766.34
2023-09-07T19:39:12.268Z,101765.97
2023-09-07T19:41:14.715Z,101770.97
2023-09-07T19:43:22.442Z,101766.22
2023-09-07T19:45:33.962Z,101764.78
2023-09-07T19:47:38.949Z,101763.53
2023-09-07T19:49:42.783Z,101775.72
2023-09-07T19:51:47.741Z,101770.06
2023-09-07T19:53:50.563Z,101773.09
2023-09-07T19:55:56.253Z,101767.25
2023-09-07T19:58:01.222Z,101774.91
2023-09-07T20:00:10.419Z,101774.78
2023-09-07T20:02:15.930Z,101777.97
2023-09-07T20:04:18.512Z,101766.50
2023-09-07T20:06:38.283Z,101774.53
2023-09-07T20:08:43.766Z,101770.41
2023-09-07T20:10:48.879Z,101773.19
2023-09-07T20:12:58.863Z,101768.81
2023-09-07T20:15:04.265Z,101779.88
2023-09-07T20:17:13.154Z,101776.94
2023-09-07T20:19:18.679Z,101781.78
2023-09-07T20:21:23.953Z,101783.00
2023-09-07T20:23:35.376Z,101781.41
2023-09-07T20:25:41.160Z,101782.50
2023-09-07T20:27:46.232Z,101770.53
2023-09-07T20:29:51.549Z,101778.91
2023-09-07T20:31:56.667Z,101773.03
2023-09-07T20:34:04.903Z,101783.16
2023-09-07T20:36:08.440Z,101775.56
2023-09-07T20:38:13.765Z,101775.75
2023-09-07T20:40:19.220Z,101774.28
2023-09-07T20:42:26.445Z,101774.53
2023-09-07T20:44:32.960Z,101772.94
2023-09-07T20:46:56.388Z,101778.84
2023-09-07T20:49:06.384Z,101773.44
2023-09-07T20:51:15.828Z,101773.13
2023-09-07T20:53:22.170Z,101775.50
2023-09-07T20:55:27.331Z,101775.19
2023-09-07T20:57:32.262Z,101778.63
2023-09-07T20:59:39.056Z,101774.44
2023-09-07T21:01:46.247Z,101774.81
2023-09-07T21:03:52.846Z,101777.06
2023-09-07T21:06:00.637Z,101772.16
2023-09-07T21:08:07.470Z,101776.19
2023-09-07T21:10:13.834Z,101777.47
2023-09-07T21:12:18.957Z,101770.00
2023-09-07T21:14:24.636Z,101769.38
2023-09-07T21:16:33.053Z,101763.38
2023-09-07T21:18:38.451Z,101762.13
2023-09-07T21:20:50.928Z,101760.59
2023-09-07T21:23:02.087Z,101762.53
2023-09-07T21:25:09.187Z,101760.06
2023-09-07T21:27:18.390Z,101760.38
2023-09-07T21:29:25.935Z,101757.84
2023-09-07T21:31:32.850Z,101759.00
2023-09-07T21:33:38.532Z,101756.53
2023-09-07T21:35:44.688Z,101761.13
2023-09-07T21:37:50.003Z,101751.28
2023-09-07T21:40:01.141Z,101757.69
2023-09-07T21:42:06.726Z,101761.66
2023-09-07T21:44:12.071Z,101763.78
2023-09-07T21:46:17.301Z,101754.38
2023-09-07T21:48:22.649Z,101762.59
2023-09-07T21:50:30.565Z,101755.66
2023-09-07T21:52:35.555Z,101758.81
2023-09-07T21:54:40.651Z,101760.72
2023-09-07T21:56:48.404Z,101760.09
2023-09-07T21:58:54.579Z,101759.34
2023-09-07T22:00:59.837Z,101765.94
2023-09-07T22:03:05.247Z,101756.25
2023-09-07T22:05:11.528Z,101750.91
2023-09-07T22:07:16.853Z,101747.47
2023-09-07T22:09:22.011Z,101747.47
2023-09-07T22:11:27.674Z,101753.78
2023-09-07T22:13:35.616Z,101739.97
2023-09-07T22:15:40.688Z,101747.34
2023-09-07T22:17:48.680Z,101751.16
2023-09-07T22:19:54.714Z,101747.00
2023-09-07T22:21:57.220Z,101743.78
2023-09-07T22:24:02.593Z,101743.09
2023-09-07T22:26:05.103Z,101741.50
2023-09-07T22:28:10.960Z,101736.50
2023-09-07T22:30:19.476Z,101736.66
2023-09-07T22:32:27.241Z,101734.56
2023-09-07T22:34:33.226Z,101739.88
2023-09-07T22:36:38.367Z,101738.19
2023-09-07T22:38:46.428Z,101735.72
2023-09-07T22:40:51.900Z,101726.97
2023-09-07T22:42:56.921Z,101736.66
2023-09-07T22:45:02.068Z,101729.00
2023-09-07T22:47:09.877Z,101730.97
2023-09-07T22:49:18.525Z,101723.19
2023-09-07T22:51:26.700Z,101726.81
2023-09-07T22:53:32.646Z,101723.47
2023-09-07T22:55:47.155Z,101723.59
2023-09-07T22:57:54.728Z,101724.84
2023-09-07T23:00:00.813Z,101726.97
2023-09-07T23:02:03.649Z,101722.84
2023-09-07T23:04:11.883Z,101719.63
2023-09-07T23:06:17.353Z,101719.16
2023-09-07T23:08:20.141Z,101718.50
2023-09-07T23:10:27.127Z,101724.69
2023-09-07T23:12:32.314Z,101719.56
2023-09-07T23:14:37.410Z,101715.91
2023-09-07T23:16:42.674Z,101717.94
2023-09-07T23:18:47.812Z,101719.75
2023-09-07T23:21:01.003Z,101719.06
2023-09-07T23:23:06.129Z,101712.81
2023-09-07T23:25:12.649Z,101717.38
2023-09-07T23:27:15.328Z,101716.16
2023-09-07T23:29:20.094Z,101718.41
2023-09-07T23:31:26.647Z,101717.69
2023-09-07T23:33:32.418Z,101718.81
2023-09-07T23:35:37.480Z,101724.25
2023-09-07T23:37:47.913Z,101722.81
2023-09-07T23:39:53.020Z,101719.47
2023-09-07T23:42:01.266Z,101718.63
2023-09-07T23:44:06.576Z,101721.31
2023-09-07T23:46:12.577Z,101724.03
2023-09-07T23:48:18.087Z,101723.13
2023-09-07T23:50:23.268Z,101716.06
2023-09-07T23:52:32.060Z,101725.09
2023-09-07T23:54:39.669Z,101720.16
2023-09-07T23:56:44.905Z,101723.00
2023-09-07T23:58:50.024Z,101724.50
